BER1042 LOWI-EDDM
Flight info
| Callsign | BER1042 |
|---|---|
| Flight time | N/A |
| Altitude | 14000 |
| Route | MOGTI P66 NESES/N0366F130 T103 BETOS BETOS1A |
| Aircraft | B738/M-SDE2E3FGHIRWXY/LB1 |
Departure
| Time | 2026-04-30 20:37 |
|---|---|
| Airport | Innsbruck Airport (LOWI) |
Arrival
| Time | N/A |
|---|---|
| Airport | Munich Airport (EDDM) |
| Time | Latitude | Longitude | Altitude | Speed | Heading |
|---|---|---|---|---|---|
| 2026-04-30 20:07 | 47.25849 | 11.35240 | 1898 ft | 0 kts | 171° |
| 2026-04-30 20:23 | 47.25861 | 11.35237 | 1898 ft | 2 kts | 169° |
| 2026-04-30 20:23 | 47.25876 | 11.35233 | 1898 ft | 2 kts | 170° |
| 2026-04-30 20:24 | 47.25890 | 11.35230 | 1898 ft | 2 kts | 170° |
| 2026-04-30 20:24 | 47.25901 | 11.35227 | 1898 ft | 1 kts | 201° |
| 2026-04-30 20:24 | 47.25909 | 11.35239 | 1898 ft | 1 kts | 258° |
| 2026-04-30 20:24 | 47.25910 | 11.35259 | 1898 ft | 1 kts | 262° |
| 2026-04-30 20:25 | 47.25910 | 11.35265 | 1898 ft | 0 kts | 259° |
| 2026-04-30 20:27 | 47.25904 | 11.35232 | 1898 ft | 8 kts | 253° |
| 2026-04-30 20:27 | 47.25879 | 11.35063 | 1899 ft | 7 kts | 263° |
| 2026-04-30 20:28 | 47.25866 | 11.34926 | 1899 ft | 6 kts | 262° |
| 2026-04-30 20:28 | 47.25828 | 11.34590 | 1902 ft | 21 kts | 261° |
| 2026-04-30 20:29 | 47.25785 | 11.34199 | 1907 ft | 16 kts | 259° |
| 2026-04-30 20:30 | 47.25793 | 11.33915 | 1915 ft | 0 kts | 299° |
| 2026-04-30 20:34 | 47.25845 | 11.33804 | 1918 ft | 12 kts | 306° |
| 2026-04-30 20:35 | 47.25911 | 11.33674 | 1922 ft | 14 kts | 305° |
| 2026-04-30 20:35 | 47.25921 | 11.33499 | 1927 ft | 22 kts | 262° |
| 2026-04-30 20:35 | 47.25848 | 11.33163 | 1923 ft | 9 kts | 246° |
| 2026-04-30 20:36 | 47.25872 | 11.33125 | 1923 ft | 6 kts | 30° |
| 2026-04-30 20:36 | 47.25883 | 11.33155 | 1923 ft | 0 kts | 77° |
| 2026-04-30 20:37 | 47.25904 | 11.33328 | 1926 ft | 53 kts | 81° |
| 2026-04-30 20:37 | 47.26004 | 11.34257 | 1905 ft | 129 kts | 81° |
| 2026-04-30 20:37 | 47.26163 | 11.35838 | 2119 ft | 171 kts | 83° |
| 2026-04-30 20:37 | 47.26316 | 11.37523 | 3047 ft | 170 kts | 83° |
| 2026-04-30 20:38 | 47.26470 | 11.39257 | 3809 ft | 174 kts | 85° |
| 2026-04-30 20:38 | 47.26393 | 11.41009 | 4491 ft | 176 kts | 103° |
| 2026-04-30 20:38 | 47.26190 | 11.42757 | 5129 ft | 178 kts | 86° |
| 2026-04-30 20:39 | 47.26674 | 11.46321 | 6399 ft | 183 kts | 78° |
| 2026-04-30 20:39 | 47.26939 | 11.48163 | 7001 ft | 187 kts | 78° |
| 2026-04-30 20:39 | 47.27202 | 11.50066 | 7577 ft | 193 kts | 78° |
| 2026-04-30 20:40 | 47.27709 | 11.53974 | 8831 ft | 200 kts | 78° |
| 2026-04-30 20:40 | 47.27958 | 11.56018 | 9325 ft | 211 kts | 78° |
| 2026-04-30 20:40 | 47.28107 | 11.58217 | 9890 ft | 220 kts | 90° |
| 2026-04-30 20:41 | 47.27950 | 11.62950 | 10367 ft | 254 kts | 65° |
| 2026-04-30 20:41 | 47.29115 | 11.64991 | 10732 ft | 270 kts | 30° |
| 2026-04-30 20:41 | 47.30945 | 11.65710 | 11276 ft | 285 kts | 360° |
| 2026-04-30 20:41 | 47.32873 | 11.64823 | 11854 ft | 303 kts | 330° |
| 2026-04-30 20:42 | 47.34356 | 11.62520 | 12460 ft | 322 kts | 303° |
| 2026-04-30 20:42 | 47.35056 | 11.59400 | 13219 ft | 332 kts | 282° |
| 2026-04-30 20:42 | 47.35445 | 11.52608 | 14311 ft | 336 kts | 277° |
| 2026-04-30 20:43 | 47.35578 | 11.49167 | 14343 ft | 334 kts | 277° |
| 2026-04-30 20:43 | 47.35710 | 11.45767 | 14346 ft | 332 kts | 277° |
| 2026-04-30 20:43 | 47.35853 | 11.42383 | 14330 ft | 331 kts | 277° |
| 2026-04-30 20:44 | 47.36158 | 11.35644 | 14332 ft | 330 kts | 278° |
| 2026-04-30 20:44 | 47.36314 | 11.32229 | 14328 ft | 333 kts | 277° |
| 2026-04-30 20:44 | 47.36623 | 11.25468 | 14338 ft | 333 kts | 277° |
| 2026-04-30 20:45 | 47.36955 | 11.18370 | 14363 ft | 370 kts | 277° |
| 2026-04-30 20:45 | 47.37133 | 11.14497 | 14360 ft | 382 kts | 276° |
| 2026-04-30 20:45 | 47.37301 | 11.10615 | 14350 ft | 381 kts | 276° |
| 2026-04-30 20:46 | 47.37643 | 11.02479 | 14361 ft | 381 kts | 276° |
| 2026-04-30 20:46 | 47.37806 | 10.98584 | 14352 ft | 382 kts | 276° |
| 2026-04-30 20:47 | 47.38130 | 10.90773 | 14345 ft | 381 kts | 276° |
| 2026-04-30 20:47 | 47.38291 | 10.86890 | 14343 ft | 383 kts | 276° |
| 2026-04-30 20:48 | 47.40830 | 10.51779 | 14318 ft | 378 kts | 289° |
| 2026-04-30 20:48 | 47.41993 | 10.48384 | 14327 ft | 364 kts | 314° |
| 2026-04-30 20:48 | 47.47819 | 10.42422 | 14326 ft | 341 kts | 340° |
| 2026-04-30 20:48 | 47.50094 | 10.41796 | 14325 ft | 329 kts | 7° |
| 2026-04-30 20:49 | 47.52254 | 10.42846 | 14296 ft | 326 kts | 34° |
| 2026-04-30 20:49 | 47.53773 | 10.45268 | 14315 ft | 327 kts | 61° |
| 2026-04-30 20:49 | 47.54356 | 10.48503 | 14332 ft | 332 kts | 84° |
| 2026-04-30 20:50 | 47.54211 | 10.55324 | 14317 ft | 332 kts | 89° |
| 2026-04-30 20:50 | 47.54182 | 10.64139 | 14292 ft | 330 kts | 84° |
| 2026-04-30 20:50 | 47.54402 | 10.66853 | 14321 ft | 328 kts | 77° |